sensor_id;sensor_type;location;lat;lon;timestamp;P1;durP1;ratioP1;P2;durP2;ratioP2
9218;SDS011;4644;48.858;9.184;2023-06-24T00:02:01;4.22;;;3.83;;
9218;SDS011;4644;48.858;9.184;2023-06-24T00:04:28;4.07;;;3.67;;
9218;SDS011;4644;48.858;9.184;2023-06-24T00:06:55;4.40;;;3.88;;
9218;SDS011;4644;48.858;9.184;2023-06-24T00:09:24;4.68;;;4.28;;
9218;SDS011;4644;48.858;9.184;2023-06-24T00:11:52;5.15;;;3.97;;
9218;SDS011;4644;48.858;9.184;2023-06-24T00:14:19;4.28;;;3.83;;
9218;SDS011;4644;48.858;9.184;2023-06-24T00:16:49;4.50;;;4.00;;
9218;SDS011;4644;48.858;9.184;2023-06-24T00:19:19;4.40;;;4.00;;
9218;SDS011;4644;48.858;9.184;2023-06-24T00:21:47;4.30;;;3.90;;
9218;SDS011;4644;48.858;9.184;2023-06-24T00:24:16;4.70;;;4.30;;
9218;SDS011;4644;48.858;9.184;2023-06-24T00:26:45;4.38;;;3.97;;
9218;SDS011;4644;48.858;9.184;2023-06-24T00:29:12;6.75;;;4.15;;
9218;SDS011;4644;48.858;9.184;2023-06-24T00:31:40;4.90;;;3.85;;
9218;SDS011;4644;48.858;9.184;2023-06-24T00:34:07;4.85;;;4.35;;
9218;SDS011;4644;48.858;9.184;2023-06-24T00:36:35;5.30;;;4.53;;
9218;SDS011;4644;48.858;9.184;2023-06-24T00:39:03;4.50;;;4.10;;
9218;SDS011;4644;48.858;9.184;2023-06-24T00:41:30;5.18;;;4.30;;
9218;SDS011;4644;48.858;9.184;2023-06-24T00:43:58;5.00;;;4.50;;
9218;SDS011;4644;48.858;9.184;2023-06-24T00:46:26;5.43;;;4.65;;
9218;SDS011;4644;48.858;9.184;2023-06-24T00:48:54;6.33;;;4.60;;
9218;SDS011;4644;48.858;9.184;2023-06-24T00:51:22;5.68;;;4.53;;
9218;SDS011;4644;48.858;9.184;2023-06-24T00:53:52;5.10;;;4.60;;
9218;SDS011;4644;48.858;9.184;2023-06-24T00:56:19;5.03;;;4.30;;
9218;SDS011;4644;48.858;9.184;2023-06-24T00:58:49;4.63;;;4.22;;
9218;SDS011;4644;48.858;9.184;2023-06-24T01:01:16;5.35;;;4.75;;
9218;SDS011;4644;48.858;9.184;2023-06-24T01:03:44;4.43;;;4.03;;
9218;SDS011;4644;48.858;9.184;2023-06-24T01:06:12;4.75;;;4.25;;
9218;SDS011;4644;48.858;9.184;2023-06-24T01:08:40;4.40;;;3.97;;
9218;SDS011;4644;48.858;9.184;2023-06-24T01:11:09;4.82;;;3.88;;
9218;SDS011;4644;48.858;9.184;2023-06-24T01:13:36;4.45;;;4.05;;
9218;SDS011;4644;48.858;9.184;2023-06-24T01:16:04;4.97;;;4.40;;
9218;SDS011;4644;48.858;9.184;2023-06-24T01:18:38;4.50;;;4.10;;
9218;SDS011;4644;48.858;9.184;2023-06-24T01:21:13;4.85;;;4.03;;
9218;SDS011;4644;48.858;9.184;2023-06-24T01:23:59;6.75;;;4.32;;
9218;SDS011;4644;48.858;9.184;2023-06-24T01:27:00;6.43;;;4.70;;
9218;SDS011;4644;48.858;9.184;2023-06-24T01:29:53;4.97;;;4.47;;
9218;SDS011;4644;48.858;9.184;2023-06-24T01:32:40;5.90;;;4.82;;
9218;SDS011;4644;48.858;9.184;2023-06-24T01:35:11;5.07;;;4.55;;
9218;SDS011;4644;48.858;9.184;2023-06-24T01:37:42;5.10;;;4.60;;
9218;SDS011;4644;48.858;9.184;2023-06-24T01:40:14;5.05;;;4.35;;
9218;SDS011;4644;48.858;9.184;2023-06-24T01:42:46;4.90;;;4.40;;
9218;SDS011;4644;48.858;9.184;2023-06-24T01:45:16;5.70;;;4.40;;
9218;SDS011;4644;48.858;9.184;2023-06-24T01:47:49;4.93;;;4.40;;
9218;SDS011;4644;48.858;9.184;2023-06-24T01:50:23;5.00;;;4.50;;
9218;SDS011;4644;48.858;9.184;2023-06-24T01:52:52;5.57;;;4.40;;
9218;SDS011;4644;48.858;9.184;2023-06-24T01:55:21;4.68;;;4.20;;
9218;SDS011;4644;48.858;9.184;2023-06-24T01:57:50;5.78;;;4.93;;
9218;SDS011;4644;48.858;9.184;2023-06-24T02:00:19;5.20;;;4.70;;
9218;SDS011;4644;48.858;9.184;2023-06-24T02:02:49;5.23;;;4.73;;
9218;SDS011;4644;48.858;9.184;2023-06-24T02:05:16;5.47;;;4.70;;
9218;SDS011;4644;48.858;9.184;2023-06-24T02:07:44;5.18;;;4.68;;
9218;SDS011;4644;48.858;9.184;2023-06-24T02:10:12;5.72;;;4.85;;
9218;SDS011;4644;48.858;9.184;2023-06-24T02:12:41;5.60;;;4.60;;
9218;SDS011;4644;48.858;9.184;2023-06-24T02:15:10;5.88;;;5.18;;
9218;SDS011;4644;48.858;9.184;2023-06-24T02:17:37;5.72;;;5.03;;
9218;SDS011;4644;48.858;9.184;2023-06-24T02:20:08;6.38;;;5.20;;
9218;SDS011;4644;48.858;9.184;2023-06-24T02:22:36;5.72;;;4.97;;
9218;SDS011;4644;48.858;9.184;2023-06-24T02:25:05;5.68;;;5.00;;
9218;SDS011;4644;48.858;9.184;2023-06-24T02:27:34;6.30;;;5.30;;
9218;SDS011;4644;48.858;9.184;2023-06-24T02:30:02;6.10;;;5.30;;
9218;SDS011;4644;48.858;9.184;2023-06-24T02:32:34;6.68;;;5.38;;
9218;SDS011;4644;48.858;9.184;2023-06-24T02:35:03;7.47;;;5.35;;
9218;SDS011;4644;48.858;9.184;2023-06-24T02:37:32;5.80;;;5.20;;
9218;SDS011;4644;48.858;9.184;2023-06-24T02:40:00;5.87;;;5.23;;
9218;SDS011;4644;48.858;9.184;2023-06-24T02:42:29;6.53;;;5.57;;
9218;SDS011;4644;48.858;9.184;2023-06-24T02:44:56;6.80;;;5.65;;
9218;SDS011;4644;48.858;9.184;2023-06-24T02:47:23;7.90;;;5.32;;
9218;SDS011;4644;48.858;9.184;2023-06-24T02:49:51;7.00;;;5.68;;
9218;SDS011;4644;48.858;9.184;2023-06-24T02:52:21;6.00;;;5.40;;
9218;SDS011;4644;48.858;9.184;2023-06-24T02:54:49;5.90;;;5.30;;
9218;SDS011;4644;48.858;9.184;2023-06-24T02:57:16;6.45;;;5.60;;
9218;SDS011;4644;48.858;9.184;2023-06-24T02:59:45;6.53;;;5.80;;
9218;SDS011;4644;48.858;9.184;2023-06-24T03:02:13;7.53;;;5.30;;
9218;SDS011;4644;48.858;9.184;2023-06-24T03:04:42;6.50;;;5.90;;
9218;SDS011;4644;48.858;9.184;2023-06-24T03:07:09;6.45;;;5.68;;
9218;SDS011;4644;48.858;9.184;2023-06-24T03:09:37;6.28;;;5.68;;
9218;SDS011;4644;48.858;9.184;2023-06-24T03:12:07;6.20;;;5.50;;
9218;SDS011;4644;48.858;9.184;2023-06-24T03:14:34;6.40;;;5.70;;
9218;SDS011;4644;48.858;9.184;2023-06-24T03:17:01;6.40;;;5.70;;
9218;SDS011;4644;48.858;9.184;2023-06-24T03:19:28;6.50;;;5.57;;
9218;SDS011;4644;48.858;9.184;2023-06-24T03:21:55;6.82;;;5.70;;
9218;SDS011;4644;48.858;9.184;2023-06-24T03:24:22;6.00;;;5.40;;
9218;SDS011;4644;48.858;9.184;2023-06-24T03:26:49;6.60;;;5.50;;
9218;SDS011;4644;48.858;9.184;2023-06-24T03:29:23;6.22;;;5.63;;
9218;SDS011;4644;48.858;9.184;2023-06-24T03:31:50;6.80;;;6.10;;
9218;SDS011;4644;48.858;9.184;2023-06-24T03:34:17;6.25;;;5.65;;
9218;SDS011;4644;48.858;9.184;2023-06-24T03:36:44;6.82;;;6.05;;
9218;SDS011;4644;48.858;9.184;2023-06-24T03:39:11;5.90;;;5.40;;
9218;SDS011;4644;48.858;9.184;2023-06-24T03:41:38;7.47;;;6.03;;
9218;SDS011;4644;48.858;9.184;2023-06-24T03:44:05;6.60;;;5.65;;
9218;SDS011;4644;48.858;9.184;2023-06-24T03:46:33;6.63;;;6.00;;
9218;SDS011;4644;48.858;9.184;2023-06-24T03:49:00;6.93;;;6.00;;
9218;SDS011;4644;48.858;9.184;2023-06-24T03:51:27;7.27;;;5.90;;
9218;SDS011;4644;48.858;9.184;2023-06-24T03:53:54;8.38;;;6.03;;
9218;SDS011;4644;48.858;9.184;2023-06-24T03:56:21;7.60;;;6.05;;
9218;SDS011;4644;48.858;9.184;2023-06-24T03:58:48;8.00;;;6.00;;
9218;SDS011;4644;48.858;9.184;2023-06-24T04:01:15;6.90;;;5.93;;
9218;SDS011;4644;48.858;9.184;2023-06-24T04:03:46;6.50;;;5.38;;
9218;SDS011;4644;48.858;9.184;2023-06-24T04:06:13;7.60;;;5.90;;
9218;SDS011;4644;48.858;9.184;2023-06-24T04:08:40;7.50;;;6.25;;
9218;SDS011;4644;48.858;9.184;2023-06-24T04:11:08;6.75;;;5.97;;
9218;SDS011;4644;48.858;9.184;2023-06-24T04:13:36;7.15;;;6.20;;
9218;SDS011;4644;48.858;9.184;2023-06-24T04:16:03;8.20;;;6.15;;
9218;SDS011;4644;48.858;9.184;2023-06-24T04:18:30;6.60;;;5.80;;
9218;SDS011;4644;48.858;9.184;2023-06-24T04:20:59;6.35;;;5.75;;
9218;SDS011;4644;48.858;9.184;2023-06-24T04:23:25;8.45;;;6.40;;
9218;SDS011;4644;48.858;9.184;2023-06-24T04:25:52;7.88;;;6.57;;
9218;SDS011;4644;48.858;9.184;2023-06-24T04:28:19;7.32;;;5.88;;
9218;SDS011;4644;48.858;9.184;2023-06-24T04:30:46;6.53;;;5.82;;
9218;SDS011;4644;48.858;9.184;2023-06-24T04:33:13;6.85;;;6.00;;
9218;SDS011;4644;48.858;9.184;2023-06-24T04:35:40;6.65;;;5.95;;
9218;SDS011;4644;48.858;9.184;2023-06-24T04:38:08;8.30;;;6.67;;
9218;SDS011;4644;48.858;9.184;2023-06-24T04:40:35;6.65;;;5.95;;
9218;SDS011;4644;48.858;9.184;2023-06-24T04:43:02;8.63;;;6.15;;
9218;SDS011;4644;48.858;9.184;2023-06-24T04:45:29;7.70;;;6.40;;
9218;SDS011;4644;48.858;9.184;2023-06-24T04:47:56;7.75;;;6.40;;
9218;SDS011;4644;48.858;9.184;2023-06-24T04:50:23;7.40;;;6.22;;
9218;SDS011;4644;48.858;9.184;2023-06-24T04:52:53;6.75;;;6.05;;
9218;SDS011;4644;48.858;9.184;2023-06-24T04:55:23;7.32;;;6.18;;
9218;SDS011;4644;48.858;9.184;2023-06-24T04:57:50;8.52;;;6.47;;
9218;SDS011;4644;48.858;9.184;2023-06-24T05:00:17;7.27;;;6.27;;
9218;SDS011;4644;48.858;9.184;2023-06-24T05:02:44;7.85;;;6.38;;
9218;SDS011;4644;48.858;9.184;2023-06-24T05:05:11;9.25;;;6.78;;
9218;SDS011;4644;48.858;9.184;2023-06-24T05:07:38;6.53;;;5.83;;
9218;SDS011;4644;48.858;9.184;2023-06-24T05:10:05;7.05;;;6.03;;
9218;SDS011;4644;48.858;9.184;2023-06-24T05:12:34;7.15;;;6.20;;
9218;SDS011;4644;48.858;9.184;2023-06-24T05:15:01;7.75;;;6.13;;
9218;SDS011;4644;48.858;9.184;2023-06-24T05:17:28;6.37;;;5.77;;
9218;SDS011;4644;48.858;9.184;2023-06-24T05:19:55;6.40;;;5.80;;
9218;SDS011;4644;48.858;9.184;2023-06-24T05:22:22;6.35;;;5.60;;
9218;SDS011;4644;48.858;9.184;2023-06-24T05:24:49;7.47;;;5.57;;
9218;SDS011;4644;48.858;9.184;2023-06-24T05:27:16;5.73;;;5.07;;
9218;SDS011;4644;48.858;9.184;2023-06-24T05:29:45;6.32;;;5.50;;
9218;SDS011;4644;48.858;9.184;2023-06-24T05:32:12;6.55;;;5.50;;
9218;SDS011;4644;48.858;9.184;2023-06-24T05:34:39;7.28;;;5.40;;
9218;SDS011;4644;48.858;9.184;2023-06-24T05:37:06;5.53;;;5.00;;
9218;SDS011;4644;48.858;9.184;2023-06-24T05:39:33;5.82;;;5.03;;
9218;SDS011;4644;48.858;9.184;2023-06-24T05:42:00;6.45;;;4.90;;
9218;SDS011;4644;48.858;9.184;2023-06-24T05:44:27;6.10;;;5.32;;
9218;SDS011;4644;48.858;9.184;2023-06-24T05:46:56;5.80;;;5.20;;
9218;SDS011;4644;48.858;9.184;2023-06-24T05:49:23;5.20;;;4.70;;
9218;SDS011;4644;48.858;9.184;2023-06-24T05:51:50;6.45;;;5.20;;
9218;SDS011;4644;48.858;9.184;2023-06-24T05:54:17;5.55;;;4.70;;
9218;SDS011;4644;48.858;9.184;2023-06-24T05:56:44;5.85;;;4.95;;
9218;SDS011;4644;48.858;9.184;2023-06-24T05:59:10;5.43;;;4.93;;
9218;SDS011;4644;48.858;9.184;2023-06-24T06:01:37;5.40;;;4.82;;
9218;SDS011;4644;48.858;9.184;2023-06-24T06:04:06;5.60;;;5.05;;
9218;SDS011;4644;48.858;9.184;2023-06-24T06:06:33;5.63;;;4.75;;
9218;SDS011;4644;48.858;9.184;2023-06-24T06:09:00;5.13;;;4.63;;
9218;SDS011;4644;48.858;9.184;2023-06-24T06:11:27;5.40;;;4.90;;
9218;SDS011;4644;48.858;9.184;2023-06-24T06:13:54;5.63;;;4.88;;
9218;SDS011;4644;48.858;9.184;2023-06-24T06:16:22;5.40;;;4.57;;
9218;SDS011;4644;48.858;9.184;2023-06-24T06:18:50;5.15;;;4.65;;
9218;SDS011;4644;48.858;9.184;2023-06-24T06:21:18;6.68;;;4.90;;
9218;SDS011;4644;48.858;9.184;2023-06-24T06:23:45;5.25;;;4.75;;
9218;SDS011;4644;48.858;9.184;2023-06-24T06:26:12;5.53;;;4.40;;
9218;SDS011;4644;48.858;9.184;2023-06-24T06:28:39;4.97;;;4.30;;
9218;SDS011;4644;48.858;9.184;2023-06-24T06:31:06;4.75;;;4.13;;
9218;SDS011;4644;48.858;9.184;2023-06-24T06:33:33;4.60;;;4.20;;
9218;SDS011;4644;48.858;9.184;2023-06-24T06:36:00;4.45;;;4.05;;
9218;SDS011;4644;48.858;9.184;2023-06-24T06:38:28;4.03;;;3.67;;
9218;SDS011;4644;48.858;9.184;2023-06-24T06:40:55;6.28;;;4.18;;
9218;SDS011;4644;48.858;9.184;2023-06-24T06:43:22;4.30;;;3.90;;
9218;SDS011;4644;48.858;9.184;2023-06-24T06:45:49;4.75;;;3.90;;
9218;SDS011;4644;48.858;9.184;2023-06-24T06:48:16;4.40;;;4.00;;
9218;SDS011;4644;48.858;9.184;2023-06-24T06:50:43;4.30;;;3.90;;
9218;SDS011;4644;48.858;9.184;2023-06-24T06:53:10;4.13;;;3.73;;
9218;SDS011;4644;48.858;9.184;2023-06-24T06:55:39;3.93;;;3.57;;
9218;SDS011;4644;48.858;9.184;2023-06-24T06:58:07;3.90;;;3.50;;
9218;SDS011;4644;48.858;9.184;2023-06-24T07:00:34;3.50;;;3.20;;
9218;SDS011;4644;48.858;9.184;2023-06-24T07:03:01;3.85;;;3.40;;
9218;SDS011;4644;48.858;9.184;2023-06-24T07:05:29;3.63;;;3.33;;
9218;SDS011;4644;48.858;9.184;2023-06-24T07:07:55;4.30;;;3.40;;
9218;SDS011;4644;48.858;9.184;2023-06-24T07:10:23;3.78;;;3.47;;
9218;SDS011;4644;48.858;9.184;2023-06-24T07:12:51;6.10;;;3.33;;
9218;SDS011;4644;48.858;9.184;2023-06-24T07:15:23;3.65;;;3.35;;
9218;SDS011;4644;48.858;9.184;2023-06-24T07:17:50;3.50;;;3.20;;
9218;SDS011;4644;48.858;9.184;2023-06-24T07:20:17;6.40;;;3.37;;
9218;SDS011;4644;48.858;9.184;2023-06-24T07:22:44;5.60;;;3.93;;
9218;SDS011;4644;48.858;9.184;2023-06-24T07:25:11;3.60;;;3.25;;
9218;SDS011;4644;48.858;9.184;2023-06-24T07:27:38;4.00;;;3.60;;
9218;SDS011;4644;48.858;9.184;2023-06-24T07:30:07;4.40;;;4.00;;
9218;SDS011;4644;48.858;9.184;2023-06-24T07:32:35;4.22;;;3.65;;
9218;SDS011;4644;48.858;9.184;2023-06-24T07:35:01;4.60;;;3.40;;
9218;SDS011;4644;48.858;9.184;2023-06-24T07:37:29;4.25;;;3.85;;
9218;SDS011;4644;48.858;9.184;2023-06-24T07:39:56;6.15;;;3.97;;
9218;SDS011;4644;48.858;9.184;2023-06-24T07:42:23;4.40;;;3.50;;
9218;SDS011;4644;48.858;9.184;2023-06-24T07:44:49;5.20;;;3.88;;
9218;SDS011;4644;48.858;9.184;2023-06-24T07:47:18;4.30;;;3.58;;
9218;SDS011;4644;48.858;9.184;2023-06-24T07:49:45;4.20;;;3.70;;
9218;SDS011;4644;48.858;9.184;2023-06-24T07:52:12;3.88;;;3.58;;
9218;SDS011;4644;48.858;9.184;2023-06-24T07:54:40;4.00;;;3.70;;
9218;SDS011;4644;48.858;9.184;2023-06-24T07:57:07;4.03;;;3.65;;
9218;SDS011;4644;48.858;9.184;2023-06-24T07:59:34;4.65;;;3.45;;
9218;SDS011;4644;48.858;9.184;2023-06-24T08:02:01;5.27;;;3.43;;
9218;SDS011;4644;48.858;9.184;2023-06-24T08:04:30;3.78;;;3.38;;
9218;SDS011;4644;48.858;9.184;2023-06-24T08:07:00;3.50;;;3.20;;
9218;SDS011;4644;48.858;9.184;2023-06-24T08:09:28;3.95;;;3.55;;
9218;SDS011;4644;48.858;9.184;2023-06-24T08:11:55;4.55;;;3.40;;
9218;SDS011;4644;48.858;9.184;2023-06-24T08:14:22;3.50;;;3.20;;
9218;SDS011;4644;48.858;9.184;2023-06-24T08:16:49;4.72;;;3.80;;
9218;SDS011;4644;48.858;9.184;2023-06-24T08:19:16;5.38;;;3.65;;
9218;SDS011;4644;48.858;9.184;2023-06-24T08:21:44;4.28;;;3.28;;
9218;SDS011;4644;48.858;9.184;2023-06-24T08:24:11;3.70;;;3.40;;
9218;SDS011;4644;48.858;9.184;2023-06-24T08:26:38;4.10;;;3.20;;
9218;SDS011;4644;48.858;9.184;2023-06-24T08:29:05;3.22;;;2.92;;
9218;SDS011;4644;48.858;9.184;2023-06-24T08:31:32;3.42;;;3.13;;
9218;SDS011;4644;48.858;9.184;2023-06-24T08:33:59;3.97;;;3.08;;
9218;SDS011;4644;48.858;9.184;2023-06-24T08:36:27;3.50;;;3.20;;
9218;SDS011;4644;48.858;9.184;2023-06-24T08:38:57;3.78;;;3.40;;
9218;SDS011;4644;48.858;9.184;2023-06-24T08:41:24;3.20;;;2.90;;
9218;SDS011;4644;48.858;9.184;2023-06-24T08:43:51;3.50;;;3.20;;
9218;SDS011;4644;48.858;9.184;2023-06-24T08:46:21;3.07;;;2.87;;
9218;SDS011;4644;48.858;9.184;2023-06-24T08:48:52;3.42;;;3.10;;
9218;SDS011;4644;48.858;9.184;2023-06-24T08:51:25;3.10;;;2.80;;
9218;SDS011;4644;48.858;9.184;2023-06-24T08:53:57;4.63;;;2.70;;
9218;SDS011;4644;48.858;9.184;2023-06-24T08:56:25;2.83;;;2.63;;
9218;SDS011;4644;48.858;9.184;2023-06-24T08:58:52;3.72;;;3.30;;
9218;SDS011;4644;48.858;9.184;2023-06-24T09:01:19;3.55;;;3.17;;
9218;SDS011;4644;48.858;9.184;2023-06-24T09:03:47;3.28;;;2.95;;
9218;SDS011;4644;48.858;9.184;2023-06-24T09:06:14;3.20;;;2.90;;
9218;SDS011;4644;48.858;9.184;2023-06-24T09:08:41;3.25;;;2.95;;
9218;SDS011;4644;48.858;9.184;2023-06-24T09:11:22;3.58;;;3.28;;
9218;SDS011;4644;48.858;9.184;2023-06-24T09:13:54;3.30;;;3.00;;
9218;SDS011;4644;48.858;9.184;2023-06-24T09:16:22;3.80;;;3.00;;
9218;SDS011;4644;48.858;9.184;2023-06-24T09:18:49;3.30;;;2.90;;
9218;SDS011;4644;48.858;9.184;2023-06-24T09:21:23;3.72;;;2.80;;
9218;SDS011;4644;48.858;9.184;2023-06-24T09:23:54;2.97;;;2.70;;
9218;SDS011;4644;48.858;9.184;2023-06-24T09:26:24;3.70;;;2.92;;
9218;SDS011;4644;48.858;9.184;2023-06-24T09:28:51;3.03;;;2.72;;
9218;SDS011;4644;48.858;9.184;2023-06-24T09:31:19;2.90;;;2.70;;
9218;SDS011;4644;48.858;9.184;2023-06-24T09:33:48;4.27;;;3.10;;
9218;SDS011;4644;48.858;9.184;2023-06-24T09:36:15;3.33;;;3.03;;
9218;SDS011;4644;48.858;9.184;2023-06-24T09:38:42;3.33;;;3.03;;
9218;SDS011;4644;48.858;9.184;2023-06-24T09:41:10;2.80;;;2.60;;
9218;SDS011;4644;48.858;9.184;2023-06-24T09:43:39;2.97;;;2.50;;
9218;SDS011;4644;48.858;9.184;2023-06-24T09:46:07;3.10;;;2.80;;
9218;SDS011;4644;48.858;9.184;2023-06-24T09:48:34;4.30;;;2.80;;
9218;SDS011;4644;48.858;9.184;2023-06-24T09:51:02;2.97;;;2.78;;
9218;SDS011;4644;48.858;9.184;2023-06-24T09:53:30;2.78;;;2.58;;
9218;SDS011;4644;48.858;9.184;2023-06-24T09:55:59;3.67;;;2.88;;
9218;SDS011;4644;48.858;9.184;2023-06-24T09:58:27;2.78;;;2.58;;
9218;SDS011;4644;48.858;9.184;2023-06-24T10:00:59;2.80;;;2.60;;
9218;SDS011;4644;48.858;9.184;2023-06-24T10:03:29;2.90;;;2.60;;
9218;SDS011;4644;48.858;9.184;2023-06-24T10:05:58;2.55;;;2.35;;
9218;SDS011;4644;48.858;9.184;2023-06-24T10:08:25;2.83;;;2.30;;
9218;SDS011;4644;48.858;9.184;2023-06-24T10:10:53;2.55;;;2.35;;
9218;SDS011;4644;48.858;9.184;2023-06-24T10:13:20;2.50;;;2.30;;
9218;SDS011;4644;48.858;9.184;2023-06-24T10:15:47;4.28;;;2.40;;
9218;SDS011;4644;48.858;9.184;2023-06-24T10:18:35;2.67;;;2.47;;
9218;SDS011;4644;48.858;9.184;2023-06-24T10:21:04;3.00;;;2.50;;
9218;SDS011;4644;48.858;9.184;2023-06-24T10:23:33;2.92;;;2.67;;
9218;SDS011;4644;48.858;9.184;2023-06-24T10:26:07;2.60;;;2.40;;
9218;SDS011;4644;48.858;9.184;2023-06-24T10:34:26;2.50;;;2.30;;
9218;SDS011;4644;48.858;9.184;2023-06-24T10:36:54;2.40;;;2.20;;
9218;SDS011;4644;48.858;9.184;2023-06-24T10:39:38;3.00;;;2.20;;
9218;SDS011;4644;48.858;9.184;2023-06-24T10:42:25;2.43;;;2.23;;
9218;SDS011;4644;48.858;9.184;2023-06-24T10:45:00;2.90;;;2.70;;
9218;SDS011;4644;48.858;9.184;2023-06-24T10:47:28;2.70;;;2.30;;
9218;SDS011;4644;48.858;9.184;2023-06-24T10:49:57;2.70;;;2.50;;
9218;SDS011;4644;48.858;9.184;2023-06-24T10:52:24;2.55;;;2.35;;
9218;SDS011;4644;48.858;9.184;2023-06-24T10:54:51;2.60;;;2.40;;
9218;SDS011;4644;48.858;9.184;2023-06-24T10:57:22;2.38;;;2.17;;
9218;SDS011;4644;48.858;9.184;2023-06-24T10:59:50;2.70;;;2.40;;
9218;SDS011;4644;48.858;9.184;2023-06-24T11:02:21;2.63;;;2.42;;
9218;SDS011;4644;48.858;9.184;2023-06-24T11:04:49;2.55;;;2.35;;
9218;SDS011;4644;48.858;9.184;2023-06-24T11:07:18;2.60;;;2.40;;
9218;SDS011;4644;48.858;9.184;2023-06-24T11:09:49;3.40;;;2.88;;
9218;SDS011;4644;48.858;9.184;2023-06-24T11:12:17;2.83;;;2.63;;
9218;SDS011;4644;48.858;9.184;2023-06-24T11:14:44;2.70;;;2.50;;
9218;SDS011;4644;48.858;9.184;2023-06-24T11:17:11;2.53;;;2.33;;
9218;SDS011;4644;48.858;9.184;2023-06-24T11:19:38;3.65;;;2.38;;
9218;SDS011;4644;48.858;9.184;2023-06-24T11:22:06;3.15;;;2.30;;
9218;SDS011;4644;48.858;9.184;2023-06-24T11:24:35;2.45;;;2.25;;
9218;SDS011;4644;48.858;9.184;2023-06-24T11:27:04;2.47;;;2.28;;
9218;SDS011;4644;48.858;9.184;2023-06-24T11:29:32;2.55;;;2.35;;
9218;SDS011;4644;48.858;9.184;2023-06-24T11:32:00;3.30;;;2.30;;
9218;SDS011;4644;48.858;9.184;2023-06-24T11:34:28;2.47;;;2.30;;
9218;SDS011;4644;48.858;9.184;2023-06-24T11:36:55;2.23;;;2.10;;
9218;SDS011;4644;48.858;9.184;2023-06-24T11:39:22;3.70;;;2.35;;
9218;SDS011;4644;48.858;9.184;2023-06-24T11:41:52;3.20;;;2.67;;
9218;SDS011;4644;48.858;9.184;2023-06-24T11:44:24;2.55;;;2.30;;
9218;SDS011;4644;48.858;9.184;2023-06-24T11:46:51;2.30;;;2.10;;
9218;SDS011;4644;48.858;9.184;2023-06-24T11:49:18;2.42;;;2.22;;
9218;SDS011;4644;48.858;9.184;2023-06-24T11:51:46;2.85;;;2.30;;
9218;SDS011;4644;48.858;9.184;2023-06-24T11:54:14;2.58;;;2.38;;
9218;SDS011;4644;48.858;9.184;2023-06-24T11:56:42;2.50;;;2.30;;
9218;SDS011;4644;48.858;9.184;2023-06-24T11:59:16;3.27;;;2.53;;
9218;SDS011;4644;48.858;9.184;2023-06-24T12:01:44;3.40;;;3.10;;
9218;SDS011;4644;48.858;9.184;2023-06-24T12:04:17;2.50;;;2.30;;
9218;SDS011;4644;48.858;9.184;2023-06-24T12:06:44;2.65;;;2.45;;
9218;SDS011;4644;48.858;9.184;2023-06-24T12:09:11;2.50;;;2.30;;
9218;SDS011;4644;48.858;9.184;2023-06-24T12:11:38;2.60;;;2.40;;
9218;SDS011;4644;48.858;9.184;2023-06-24T12:14:05;2.72;;;2.47;;
9218;SDS011;4644;48.858;9.184;2023-06-24T12:16:34;2.72;;;2.53;;
9218;SDS011;4644;48.858;9.184;2023-06-24T12:19:00;2.58;;;2.38;;
9218;SDS011;4644;48.858;9.184;2023-06-24T12:21:28;2.65;;;2.33;;
9218;SDS011;4644;48.858;9.184;2023-06-24T12:23:55;2.58;;;2.38;;
9218;SDS011;4644;48.858;9.184;2023-06-24T12:26:21;2.73;;;2.53;;
9218;SDS011;4644;48.858;9.184;2023-06-24T12:28:49;3.10;;;2.70;;
9218;SDS011;4644;48.858;9.184;2023-06-24T12:31:20;2.85;;;2.47;;
9218;SDS011;4644;48.858;9.184;2023-06-24T12:33:48;2.55;;;2.35;;
9218;SDS011;4644;48.858;9.184;2023-06-24T12:36:16;2.83;;;2.50;;
9218;SDS011;4644;48.858;9.184;2023-06-24T12:38:43;2.90;;;2.70;;
9218;SDS011;4644;48.858;9.184;2023-06-24T12:41:10;2.60;;;2.40;;
9218;SDS011;4644;48.858;9.184;2023-06-24T12:43:37;2.60;;;2.38;;
9218;SDS011;4644;48.858;9.184;2023-06-24T12:46:03;4.22;;;2.65;;
9218;SDS011;4644;48.858;9.184;2023-06-24T12:48:30;2.80;;;2.60;;
9218;SDS011;4644;48.858;9.184;2023-06-24T12:50:59;2.80;;;2.60;;
9218;SDS011;4644;48.858;9.184;2023-06-24T12:53:25;2.60;;;2.40;;
9218;SDS011;4644;48.858;9.184;2023-06-24T12:55:52;2.70;;;2.50;;
9218;SDS011;4644;48.858;9.184;2023-06-24T12:58:21;2.65;;;2.45;;
9218;SDS011;4644;48.858;9.184;2023-06-24T13:00:49;2.90;;;2.70;;
9218;SDS011;4644;48.858;9.184;2023-06-24T13:03:16;2.80;;;2.50;;
9218;SDS011;4644;48.858;9.184;2023-06-24T13:05:43;2.60;;;2.40;;
9218;SDS011;4644;48.858;9.184;2023-06-24T13:08:11;2.67;;;2.47;;
9218;SDS011;4644;48.858;9.184;2023-06-24T13:10:38;2.58;;;2.38;;
9218;SDS011;4644;48.858;9.184;2023-06-24T13:13:06;2.60;;;2.40;;
9218;SDS011;4644;48.858;9.184;2023-06-24T13:15:33;3.38;;;2.47;;
9218;SDS011;4644;48.858;9.184;2023-06-24T13:18:00;2.75;;;2.55;;
9218;SDS011;4644;48.858;9.184;2023-06-24T13:20:28;2.67;;;2.47;;
9218;SDS011;4644;48.858;9.184;2023-06-24T13:22:54;2.85;;;2.65;;
9218;SDS011;4644;48.858;9.184;2023-06-24T13:25:23;2.42;;;2.22;;
9218;SDS011;4644;48.858;9.184;2023-06-24T13:27:50;2.55;;;2.30;;
9218;SDS011;4644;48.858;9.184;2023-06-24T13:30:17;2.80;;;2.60;;
9218;SDS011;4644;48.858;9.184;2023-06-24T13:32:44;2.83;;;2.63;;
9218;SDS011;4644;48.858;9.184;2023-06-24T13:35:11;2.75;;;2.53;;
9218;SDS011;4644;48.858;9.184;2023-06-24T13:37:38;2.70;;;2.50;;
9218;SDS011;4644;48.858;9.184;2023-06-24T13:40:06;3.55;;;2.60;;
9218;SDS011;4644;48.858;9.184;2023-06-24T13:42:34;2.70;;;2.50;;
9218;SDS011;4644;48.858;9.184;2023-06-24T13:45:02;3.07;;;2.80;;
9218;SDS011;4644;48.858;9.184;2023-06-24T13:47:29;2.88;;;2.60;;
9218;SDS011;4644;48.858;9.184;2023-06-24T13:49:56;2.70;;;2.50;;
9218;SDS011;4644;48.858;9.184;2023-06-24T13:52:24;2.65;;;2.45;;
9218;SDS011;4644;48.858;9.184;2023-06-24T13:54:51;2.70;;;2.50;;
9218;SDS011;4644;48.858;9.184;2023-06-24T13:57:18;2.88;;;2.67;;
9218;SDS011;4644;48.858;9.184;2023-06-24T13:59:46;2.65;;;2.45;;
9218;SDS011;4644;48.858;9.184;2023-06-24T14:02:13;2.83;;;2.63;;
9218;SDS011;4644;48.858;9.184;2023-06-24T14:04:42;3.70;;;2.72;;
9218;SDS011;4644;48.858;9.184;2023-06-24T14:07:09;2.92;;;2.72;;
9218;SDS011;4644;48.858;9.184;2023-06-24T14:09:36;4.97;;;2.78;;
9218;SDS011;4644;48.858;9.184;2023-06-24T14:12:05;2.90;;;2.70;;
9218;SDS011;4644;48.858;9.184;2023-06-24T14:14:34;3.03;;;2.50;;
9218;SDS011;4644;48.858;9.184;2023-06-24T14:17:03;4.25;;;2.90;;
9218;SDS011;4644;48.858;9.184;2023-06-24T14:19:33;4.30;;;3.05;;
9218;SDS011;4644;48.858;9.184;2023-06-24T14:22:01;3.17;;;2.70;;
9218;SDS011;4644;48.858;9.184;2023-06-24T14:24:28;2.70;;;2.50;;
9218;SDS011;4644;48.858;9.184;2023-06-24T14:26:54;2.53;;;2.33;;
9218;SDS011;4644;48.858;9.184;2023-06-24T14:29:21;3.88;;;2.97;;
9218;SDS011;4644;48.858;9.184;2023-06-24T14:31:48;2.67;;;2.47;;
9218;SDS011;4644;48.858;9.184;2023-06-24T14:34:17;3.15;;;2.85;;
9218;SDS011;4644;48.858;9.184;2023-06-24T14:36:44;2.60;;;2.40;;
9218;SDS011;4644;48.858;9.184;2023-06-24T14:39:13;2.70;;;2.50;;
9218;SDS011;4644;48.858;9.184;2023-06-24T14:41:42;3.10;;;2.50;;
9218;SDS011;4644;48.858;9.184;2023-06-24T14:44:09;2.90;;;2.70;;
9218;SDS011;4644;48.858;9.184;2023-06-24T14:46:36;3.10;;;2.80;;
9218;SDS011;4644;48.858;9.184;2023-06-24T14:49:03;2.60;;;2.40;;
9218;SDS011;4644;48.858;9.184;2023-06-24T14:51:31;3.20;;;2.90;;
9218;SDS011;4644;48.858;9.184;2023-06-24T14:53:58;2.58;;;2.38;;
9218;SDS011;4644;48.858;9.184;2023-06-24T14:56:25;2.60;;;2.40;;
9218;SDS011;4644;48.858;9.184;2023-06-24T14:58:52;2.90;;;2.70;;
9218;SDS011;4644;48.858;9.184;2023-06-24T15:01:19;2.63;;;2.42;;
9218;SDS011;4644;48.858;9.184;2023-06-24T15:03:46;2.70;;;2.50;;
9218;SDS011;4644;48.858;9.184;2023-06-24T15:06:13;2.38;;;2.20;;
9218;SDS011;4644;48.858;9.184;2023-06-24T15:08:41;2.90;;;2.70;;
9218;SDS011;4644;48.858;9.184;2023-06-24T15:11:08;2.70;;;2.50;;
9218;SDS011;4644;48.858;9.184;2023-06-24T15:13:35;2.83;;;2.63;;
9218;SDS011;4644;48.858;9.184;2023-06-24T15:16:02;3.65;;;2.38;;
9218;SDS011;4644;48.858;9.184;2023-06-24T15:18:29;3.05;;;2.65;;
9218;SDS011;4644;48.858;9.184;2023-06-24T15:20:56;3.65;;;2.85;;
9218;SDS011;4644;48.858;9.184;2023-06-24T15:23:23;3.05;;;2.85;;
9218;SDS011;4644;48.858;9.184;2023-06-24T15:25:51;2.95;;;2.72;;
9218;SDS011;4644;48.858;9.184;2023-06-24T15:28:18;3.20;;;2.90;;